ROU558 KSYR-CYYZ
Flight info
| Callsign | ROU558 |
|---|---|
| Flight time | N/A |
| Altitude | 30000 |
| Route | SYR DCT DINES DCT WOZEE LINNG3 |
| Aircraft | A320/M-SDE3FGHIRWY/LB1 |
Departure
| Time | 2026-05-08 02:14 |
|---|---|
| Airport | Syracuse Hancock International Airport (KSYR) |
Arrival
| Time | N/A |
|---|---|
| Airport | Toronto Pearson International Airport (CYYZ) |
| Time | Latitude | Longitude | Altitude | Speed | Heading |
|---|---|---|---|---|---|
| 2026-05-08 02:10 | 43.11581 | -76.10890 | 410 ft | 1 kts | 310° |
| 2026-05-08 02:11 | 43.11584 | -76.10897 | 409 ft | 1 kts | 301° |
| 2026-05-08 02:11 | 43.11609 | -76.10949 | 414 ft | 14 kts | 345° |
| 2026-05-08 02:11 | 43.11735 | -76.10984 | 413 ft | 20 kts | 333° |
| 2026-05-08 02:11 | 43.11838 | -76.11120 | 413 ft | 22 kts | 316° |
| 2026-05-08 02:12 | 43.11942 | -76.11269 | 410 ft | 21 kts | 310° |
| 2026-05-08 02:12 | 43.12028 | -76.11371 | 414 ft | 15 kts | 348° |
| 2026-05-08 02:12 | 43.12101 | -76.11284 | 413 ft | 10 kts | 61° |
| 2026-05-08 02:12 | 43.12081 | -76.11221 | 415 ft | 6 kts | 139° |
| 2026-05-08 02:13 | 43.12057 | -76.11189 | 407 ft | 6 kts | 136° |
| 2026-05-08 02:13 | 43.11917 | -76.10996 | 414 ft | 65 kts | 133° |
| 2026-05-08 02:13 | 43.11438 | -76.10310 | 423 ft | 131 kts | 134° |
| 2026-05-08 02:13 | 43.10703 | -76.09272 | 656 ft | 158 kts | 134° |
| 2026-05-08 02:14 | 43.09876 | -76.08322 | 1325 ft | 156 kts | 161° |
| 2026-05-08 02:14 | 43.08838 | -76.08384 | 1998 ft | 151 kts | 207° |
| 2026-05-08 02:14 | 43.08010 | -76.09348 | 2413 ft | 168 kts | 243° |
| 2026-05-08 02:14 | 43.07780 | -76.10959 | 2767 ft | 185 kts | 282° |
| 2026-05-08 02:15 | 43.08490 | -76.12513 | 3058 ft | 209 kts | 319° |
| 2026-05-08 02:15 | 43.09697 | -76.13822 | 3500 ft | 233 kts | 321° |
| 2026-05-08 02:15 | 43.11030 | -76.15214 | 4210 ft | 245 kts | 321° |
| 2026-05-08 02:15 | 43.12400 | -76.16636 | 5167 ft | 248 kts | 320° |
| 2026-05-08 02:16 | 43.13784 | -76.18078 | 6114 ft | 252 kts | 320° |
| 2026-05-08 02:16 | 43.15174 | -76.19557 | 7012 ft | 254 kts | 315° |
| 2026-05-08 02:16 | 43.16194 | -76.21492 | 7878 ft | 253 kts | 289° |
| 2026-05-08 02:16 | 43.16645 | -76.23819 | 8819 ft | 253 kts | 282° |
| 2026-05-08 02:17 | 43.17040 | -76.26174 | 9772 ft | 254 kts | 282° |
| 2026-05-08 02:17 | 43.17437 | -76.28575 | 10372 ft | 268 kts | 281° |
| 2026-05-08 02:17 | 43.17858 | -76.31134 | 10639 ft | 290 kts | 281° |
| 2026-05-08 02:17 | 43.18320 | -76.33934 | 11189 ft | 302 kts | 281° |
| 2026-05-08 02:18 | 43.18791 | -76.36754 | 11959 ft | 306 kts | 281° |
| 2026-05-08 02:18 | 43.19263 | -76.39568 | 12757 ft | 308 kts | 280° |
| 2026-05-08 02:18 | 43.19744 | -76.42440 | 13558 ft | 311 kts | 280° |
| 2026-05-08 02:18 | 43.20232 | -76.45346 | 14267 ft | 314 kts | 280° |
| 2026-05-08 02:19 | 43.20393 | -76.46305 | 14490 ft | 315 kts | 280° |
| 2026-05-08 02:19 | 43.20809 | -76.48810 | 15047 ft | 319 kts | 279° |
| 2026-05-08 02:19 | 43.21033 | -76.50165 | 15205 ft | 324 kts | 279° |
| 2026-05-08 02:20 | 43.21479 | -76.52861 | 15808 ft | 326 kts | 280° |
| 2026-05-08 02:20 | 43.21994 | -76.55965 | 16495 ft | 330 kts | 280° |
| 2026-05-08 02:20 | 43.22502 | -76.59042 | 17138 ft | 334 kts | 280° |
| 2026-05-08 02:20 | 43.23018 | -76.62166 | 17775 ft | 338 kts | 280° |
| 2026-05-08 02:21 | 43.23538 | -76.65324 | 18384 ft | 341 kts | 279° |
| 2026-05-08 02:21 | 43.24071 | -76.68575 | 18956 ft | 345 kts | 280° |
| 2026-05-08 02:21 | 43.24604 | -76.71814 | 19533 ft | 348 kts | 280° |
| 2026-05-08 02:21 | 43.25136 | -76.75034 | 20438 ft | 340 kts | 280° |
| 2026-05-08 02:22 | 43.25662 | -76.78234 | 20803 ft | 350 kts | 280° |
| 2026-05-08 02:22 | 43.26083 | -76.80829 | 21138 ft | 355 kts | 280° |